sensor_id;sensor_type;location;lat;lon;timestamp;temperature;humidity
39919;DHT22;25589;51.552;13.424;2024-01-30T00:01:15;5.60;99.90
39919;DHT22;25589;51.552;13.424;2024-01-30T00:03:41;5.60;99.90
39919;DHT22;25589;51.552;13.424;2024-01-30T00:06:11;6.10;99.90
39919;DHT22;25589;51.552;13.424;2024-01-30T00:08:36;5.80;99.90
39919;DHT22;25589;51.552;13.424;2024-01-30T00:11:02;5.80;99.90
39919;DHT22;25589;51.552;13.424;2024-01-30T00:13:27;5.70;99.90
39919;DHT22;25589;51.552;13.424;2024-01-30T00:15:53;5.70;99.90
39919;DHT22;25589;51.552;13.424;2024-01-30T00:20:45;5.60;99.90
39919;DHT22;25589;51.552;13.424;2024-01-30T00:23:11;5.70;99.90
39919;DHT22;25589;51.552;13.424;2024-01-30T00:25:36;5.70;99.90
39919;DHT22;25589;51.552;13.424;2024-01-30T00:28:02;5.70;99.90
39919;DHT22;25589;51.552;13.424;2024-01-30T00:30:28;5.70;99.90
39919;DHT22;25589;51.552;13.424;2024-01-30T00:32:54;5.50;99.90
39919;DHT22;25589;51.552;13.424;2024-01-30T00:35:19;5.70;99.90
39919;DHT22;25589;51.552;13.424;2024-01-30T00:37:47;5.70;99.90
39919;DHT22;25589;51.552;13.424;2024-01-30T00:40:13;5.70;99.90
39919;DHT22;25589;51.552;13.424;2024-01-30T00:42:43;6.00;99.90
39919;DHT22;25589;51.552;13.424;2024-01-30T00:45:16;5.50;99.90
39919;DHT22;25589;51.552;13.424;2024-01-30T00:47:42;5.60;99.90
39919;DHT22;25589;51.552;13.424;2024-01-30T00:50:08;5.60;99.90
39919;DHT22;25589;51.552;13.424;2024-01-30T00:52:35;5.20;99.90
39919;DHT22;25589;51.552;13.424;2024-01-30T00:55:01;5.50;99.90
39919;DHT22;25589;51.552;13.424;2024-01-30T00:57:26;5.50;99.90
39919;DHT22;25589;51.552;13.424;2024-01-30T00:59:52;5.50;99.90
39919;DHT22;25589;51.552;13.424;2024-01-30T01:02:18;5.40;99.90
39919;DHT22;25589;51.552;13.424;2024-01-30T01:04:44;5.40;99.90
39919;DHT22;25589;51.552;13.424;2024-01-30T01:07:10;6.10;99.90
39919;DHT22;25589;51.552;13.424;2024-01-30T01:09:36;5.40;99.90
39919;DHT22;25589;51.552;13.424;2024-01-30T01:12:03;5.40;99.90
39919;DHT22;25589;51.552;13.424;2024-01-30T01:14:28;5.30;99.90
39919;DHT22;25589;51.552;13.424;2024-01-30T01:16:54;5.60;99.90
39919;DHT22;25589;51.552;13.424;2024-01-30T01:19:19;5.60;99.90
39919;DHT22;25589;51.552;13.424;2024-01-30T01:21:45;5.30;99.90
39919;DHT22;25589;51.552;13.424;2024-01-30T01:24:11;5.40;99.90
39919;DHT22;25589;51.552;13.424;2024-01-30T01:26:36;5.40;99.90
39919;DHT22;25589;51.552;13.424;2024-01-30T01:29:02;6.40;99.90
39919;DHT22;25589;51.552;13.424;2024-01-30T01:31:38;6.10;99.90
39919;DHT22;25589;51.552;13.424;2024-01-30T01:34:10;5.30;99.90
39919;DHT22;25589;51.552;13.424;2024-01-30T01:36:35;5.30;99.90
39919;DHT22;25589;51.552;13.424;2024-01-30T01:39:01;5.30;99.90
39919;DHT22;25589;51.552;13.424;2024-01-30T01:41:33;5.20;99.90
39919;DHT22;25589;51.552;13.424;2024-01-30T01:43:59;5.20;99.90
39919;DHT22;25589;51.552;13.424;2024-01-30T01:46:30;5.20;99.90
39919;DHT22;25589;51.552;13.424;2024-01-30T01:48:58;5.20;99.90
39919;DHT22;25589;51.552;13.424;2024-01-30T01:51:25;5.30;99.90
39919;DHT22;25589;51.552;13.424;2024-01-30T01:53:53;5.30;99.90
39919;DHT22;25589;51.552;13.424;2024-01-30T01:56:19;5.20;99.90
39919;DHT22;25589;51.552;13.424;2024-01-30T01:58:46;5.30;99.90
39919;DHT22;25589;51.552;13.424;2024-01-30T02:01:13;5.20;99.90
39919;DHT22;25589;51.552;13.424;2024-01-30T02:03:41;5.20;99.90
39919;DHT22;25589;51.552;13.424;2024-01-30T02:06:06;5.20;99.90
39919;DHT22;25589;51.552;13.424;2024-01-30T02:08:32;5.20;99.90
39919;DHT22;25589;51.552;13.424;2024-01-30T02:10:59;4.80;99.90
39919;DHT22;25589;51.552;13.424;2024-01-30T02:13:25;5.50;99.90
39919;DHT22;25589;51.552;13.424;2024-01-30T02:15:53;5.30;99.90
39919;DHT22;25589;51.552;13.424;2024-01-30T02:20:51;5.20;99.90
39919;DHT22;25589;51.552;13.424;2024-01-30T02:23:19;5.30;99.90
39919;DHT22;25589;51.552;13.424;2024-01-30T02:25:45;5.20;99.90
39919;DHT22;25589;51.552;13.424;2024-01-30T02:30:40;5.20;99.90
39919;DHT22;25589;51.552;13.424;2024-01-30T02:35:32;5.20;99.90
39919;DHT22;25589;51.552;13.424;2024-01-30T02:37:58;5.30;99.90
39919;DHT22;25589;51.552;13.424;2024-01-30T02:40:24;5.70;99.90
39919;DHT22;25589;51.552;13.424;2024-01-30T02:42:50;6.00;99.90
39919;DHT22;25589;51.552;13.424;2024-01-30T02:45:15;5.20;99.90
39919;DHT22;25589;51.552;13.424;2024-01-30T02:47:41;5.20;99.90
39919;DHT22;25589;51.552;13.424;2024-01-30T02:50:06;6.00;99.90
39919;DHT22;25589;51.552;13.424;2024-01-30T02:52:32;5.20;99.90
39919;DHT22;25589;51.552;13.424;2024-01-30T02:54:58;5.20;99.90
39919;DHT22;25589;51.552;13.424;2024-01-30T02:57:23;5.20;99.90
39919;DHT22;25589;51.552;13.424;2024-01-30T02:59:49;4.80;99.90
39919;DHT22;25589;51.552;13.424;2024-01-30T03:02:15;5.20;99.90
39919;DHT22;25589;51.552;13.424;2024-01-30T03:04:43;5.30;99.90
39919;DHT22;25589;51.552;13.424;2024-01-30T03:07:09;5.20;99.90
39919;DHT22;25589;51.552;13.424;2024-01-30T03:12:01;5.20;99.90
39919;DHT22;25589;51.552;13.424;2024-01-30T03:14:30;4.90;99.90
39919;DHT22;25589;51.552;13.424;2024-01-30T03:16:58;4.90;99.90
39919;DHT22;25589;51.552;13.424;2024-01-30T03:19:24;4.50;99.90
39919;DHT22;25589;51.552;13.424;2024-01-30T03:21:50;6.30;99.90
39919;DHT22;25589;51.552;13.424;2024-01-30T03:24:16;6.20;99.90
39919;DHT22;25589;51.552;13.424;2024-01-30T03:26:43;5.10;99.90
39919;DHT22;25589;51.552;13.424;2024-01-30T03:29:09;4.10;99.90
39919;DHT22;25589;51.552;13.424;2024-01-30T03:31:34;5.20;99.90
39919;DHT22;25589;51.552;13.424;2024-01-30T03:34:01;5.10;99.90
39919;DHT22;25589;51.552;13.424;2024-01-30T03:36:27;5.90;99.90
39919;DHT22;25589;51.552;13.424;2024-01-30T03:38:52;5.60;99.90
39919;DHT22;25589;51.552;13.424;2024-01-30T03:41:18;5.20;99.90
39919;DHT22;25589;51.552;13.424;2024-01-30T03:43:43;5.20;99.90
39919;DHT22;25589;51.552;13.424;2024-01-30T03:46:09;5.00;99.90
39919;DHT22;25589;51.552;13.424;2024-01-30T03:48:36;5.10;99.90
39919;DHT22;25589;51.552;13.424;2024-01-30T03:51:02;5.70;99.90
39919;DHT22;25589;51.552;13.424;2024-01-30T03:53:27;5.10;99.90
39919;DHT22;25589;51.552;13.424;2024-01-30T03:55:53;5.20;99.90
39919;DHT22;25589;51.552;13.424;2024-01-30T03:58:18;5.30;99.90
39919;DHT22;25589;51.552;13.424;2024-01-30T04:00:44;5.10;99.90
39919;DHT22;25589;51.552;13.424;2024-01-30T04:03:10;5.30;99.90
39919;DHT22;25589;51.552;13.424;2024-01-30T04:05:35;5.10;99.90
39919;DHT22;25589;51.552;13.424;2024-01-30T04:08:01;5.10;99.90
39919;DHT22;25589;51.552;13.424;2024-01-30T04:10:27;8.80;99.90
39919;DHT22;25589;51.552;13.424;2024-01-30T04:12:52;4.60;99.90
39919;DHT22;25589;51.552;13.424;2024-01-30T04:15:19;5.00;99.90
39919;DHT22;25589;51.552;13.424;2024-01-30T04:17:45;5.00;99.90
39919;DHT22;25589;51.552;13.424;2024-01-30T04:20:14;5.00;99.90
39919;DHT22;25589;51.552;13.424;2024-01-30T04:22:43;5.40;99.90
39919;DHT22;25589;51.552;13.424;2024-01-30T04:25:09;5.00;99.90
39919;DHT22;25589;51.552;13.424;2024-01-30T04:27:35;4.90;99.90
39919;DHT22;25589;51.552;13.424;2024-01-30T04:30:01;4.90;99.90
39919;DHT22;25589;51.552;13.424;2024-01-30T04:32:27;4.90;99.90
39919;DHT22;25589;51.552;13.424;2024-01-30T04:34:52;4.10;99.90
39919;DHT22;25589;51.552;13.424;2024-01-30T04:37:18;5.40;99.90
39919;DHT22;25589;51.552;13.424;2024-01-30T04:39:44;5.20;99.90
39919;DHT22;25589;51.552;13.424;2024-01-30T04:42:09;5.70;99.90
39919;DHT22;25589;51.552;13.424;2024-01-30T04:47:01;4.80;99.90
39919;DHT22;25589;51.552;13.424;2024-01-30T04:49:27;5.00;99.90
39919;DHT22;25589;51.552;13.424;2024-01-30T04:51:54;4.70;99.90
39919;DHT22;25589;51.552;13.424;2024-01-30T04:54:20;5.00;99.90
39919;DHT22;25589;51.552;13.424;2024-01-30T04:56:45;4.70;99.90
39919;DHT22;25589;51.552;13.424;2024-01-30T04:59:11;5.20;99.90
39919;DHT22;25589;51.552;13.424;2024-01-30T05:01:37;3.60;99.90
39919;DHT22;25589;51.552;13.424;2024-01-30T05:04:03;4.60;99.90
39919;DHT22;25589;51.552;13.424;2024-01-30T05:06:29;4.80;99.90
39919;DHT22;25589;51.552;13.424;2024-01-30T05:08:55;4.60;99.90
39919;DHT22;25589;51.552;13.424;2024-01-30T05:11:21;4.50;99.90
39919;DHT22;25589;51.552;13.424;2024-01-30T05:16:13;4.60;99.90
39919;DHT22;25589;51.552;13.424;2024-01-30T05:18:39;4.70;99.90
39919;DHT22;25589;51.552;13.424;2024-01-30T05:21:05;4.50;99.90
39919;DHT22;25589;51.552;13.424;2024-01-30T05:23:31;4.50;99.90
39919;DHT22;25589;51.552;13.424;2024-01-30T05:25:56;4.60;99.90
39919;DHT22;25589;51.552;13.424;2024-01-30T05:28:22;4.90;99.90
39919;DHT22;25589;51.552;13.424;2024-01-30T05:30:47;4.50;99.90
39919;DHT22;25589;51.552;13.424;2024-01-30T05:33:13;4.50;99.90
39919;DHT22;25589;51.552;13.424;2024-01-30T05:35:39;4.40;99.90
39919;DHT22;25589;51.552;13.424;2024-01-30T05:38:04;4.40;99.90
39919;DHT22;25589;51.552;13.424;2024-01-30T05:40:30;4.40;99.90
39919;DHT22;25589;51.552;13.424;2024-01-30T05:42:56;4.50;99.90
39919;DHT22;25589;51.552;13.424;2024-01-30T05:45:23;4.40;99.90
39919;DHT22;25589;51.552;13.424;2024-01-30T05:47:49;4.10;99.90
39919;DHT22;25589;51.552;13.424;2024-01-30T05:50:15;4.40;99.90
39919;DHT22;25589;51.552;13.424;2024-01-30T05:52:40;5.00;99.90
39919;DHT22;25589;51.552;13.424;2024-01-30T05:55:06;4.80;99.90
39919;DHT22;25589;51.552;13.424;2024-01-30T05:57:32;4.40;99.90
39919;DHT22;25589;51.552;13.424;2024-01-30T05:59:58;4.40;99.90
39919;DHT22;25589;51.552;13.424;2024-01-30T06:02:23;4.30;99.90
39919;DHT22;25589;51.552;13.424;2024-01-30T06:04:49;5.30;99.90
39919;DHT22;25589;51.552;13.424;2024-01-30T06:07:14;4.50;99.90
39919;DHT22;25589;51.552;13.424;2024-01-30T06:09:40;3.60;99.90
39919;DHT22;25589;51.552;13.424;2024-01-30T06:12:06;4.40;99.90
39919;DHT22;25589;51.552;13.424;2024-01-30T06:14:32;4.30;99.90
39919;DHT22;25589;51.552;13.424;2024-01-30T06:16:59;4.70;99.90
39919;DHT22;25589;51.552;13.424;2024-01-30T06:19:25;4.00;99.90
39919;DHT22;25589;51.552;13.424;2024-01-30T06:24:16;4.40;99.90
39919;DHT22;25589;51.552;13.424;2024-01-30T06:26:42;4.40;99.90
39919;DHT22;25589;51.552;13.424;2024-01-30T06:29:08;4.60;99.90
39919;DHT22;25589;51.552;13.424;2024-01-30T06:31:40;4.40;99.90
39919;DHT22;25589;51.552;13.424;2024-01-30T06:34:07;4.30;99.90
39919;DHT22;25589;51.552;13.424;2024-01-30T06:36:32;4.40;99.90
39919;DHT22;25589;51.552;13.424;2024-01-30T06:38:58;4.40;99.90
39919;DHT22;25589;51.552;13.424;2024-01-30T06:41:23;4.40;99.90
39919;DHT22;25589;51.552;13.424;2024-01-30T06:43:49;4.30;99.90
39919;DHT22;25589;51.552;13.424;2024-01-30T06:46:15;4.30;99.90
39919;DHT22;25589;51.552;13.424;2024-01-30T06:48:42;3.80;99.90
39919;DHT22;25589;51.552;13.424;2024-01-30T06:51:10;4.50;99.90
39919;DHT22;25589;51.552;13.424;2024-01-30T06:53:36;4.00;99.90
39919;DHT22;25589;51.552;13.424;2024-01-30T06:56:02;4.40;99.90
39919;DHT22;25589;51.552;13.424;2024-01-30T06:58:27;4.00;99.90
39919;DHT22;25589;51.552;13.424;2024-01-30T07:00:53;4.80;99.90
39919;DHT22;25589;51.552;13.424;2024-01-30T07:03:19;3.80;99.90
39919;DHT22;25589;51.552;13.424;2024-01-30T07:05:45;3.20;99.90
39919;DHT22;25589;51.552;13.424;2024-01-30T07:08:10;4.50;99.90
39919;DHT22;25589;51.552;13.424;2024-01-30T07:10:36;4.60;99.90
39919;DHT22;25589;51.552;13.424;2024-01-30T07:13:02;4.60;99.90
39919;DHT22;25589;51.552;13.424;2024-01-30T07:15:27;4.60;99.90
39919;DHT22;25589;51.552;13.424;2024-01-30T07:17:53;4.60;99.90
39919;DHT22;25589;51.552;13.424;2024-01-30T07:20:18;4.70;99.90
39919;DHT22;25589;51.552;13.424;2024-01-30T07:22:45;4.80;99.90
39919;DHT22;25589;51.552;13.424;2024-01-30T07:25:11;4.70;99.90
39919;DHT22;25589;51.552;13.424;2024-01-30T07:27:37;5.10;99.90
39919;DHT22;25589;51.552;13.424;2024-01-30T07:30:03;4.80;99.90
39919;DHT22;25589;51.552;13.424;2024-01-30T07:32:28;4.80;99.90
39919;DHT22;25589;51.552;13.424;2024-01-30T07:34:54;5.00;99.90
39919;DHT22;25589;51.552;13.424;2024-01-30T07:37:19;5.10;99.90
39919;DHT22;25589;51.552;13.424;2024-01-30T07:39:45;5.10;99.90
39919;DHT22;25589;51.552;13.424;2024-01-30T07:42:11;5.20;99.90
39919;DHT22;25589;51.552;13.424;2024-01-30T07:44:36;4.70;99.90
39919;DHT22;25589;51.552;13.424;2024-01-30T07:47:02;5.40;99.90
39919;DHT22;25589;51.552;13.424;2024-01-30T07:49:28;5.20;99.90
39919;DHT22;25589;51.552;13.424;2024-01-30T07:51:54;5.10;99.90
39919;DHT22;25589;51.552;13.424;2024-01-30T07:54:20;5.80;99.90
39919;DHT22;25589;51.552;13.424;2024-01-30T07:56:45;6.10;99.90
39919;DHT22;25589;51.552;13.424;2024-01-30T07:59:11;5.30;99.90
39919;DHT22;25589;51.552;13.424;2024-01-30T08:01:37;5.40;99.90
39919;DHT22;25589;51.552;13.424;2024-01-30T08:04:03;5.70;99.90
39919;DHT22;25589;51.552;13.424;2024-01-30T08:06:29;5.40;99.90
39919;DHT22;25589;51.552;13.424;2024-01-30T08:08:54;5.50;99.90
39919;DHT22;25589;51.552;13.424;2024-01-30T08:11:20;5.50;99.90
39919;DHT22;25589;51.552;13.424;2024-01-30T08:13:52;5.50;99.90
39919;DHT22;25589;51.552;13.424;2024-01-30T08:16:17;5.60;99.90
39919;DHT22;25589;51.552;13.424;2024-01-30T08:18:43;5.60;99.90
39919;DHT22;25589;51.552;13.424;2024-01-30T08:21:09;4.80;99.90
39919;DHT22;25589;51.552;13.424;2024-01-30T08:23:34;5.60;99.90
39919;DHT22;25589;51.552;13.424;2024-01-30T08:26:00;5.60;99.90
39919;DHT22;25589;51.552;13.424;2024-01-30T08:28:26;5.60;99.90
39919;DHT22;25589;51.552;13.424;2024-01-30T08:30:52;5.00;99.90
39919;DHT22;25589;51.552;13.424;2024-01-30T08:33:17;6.00;99.90
39919;DHT22;25589;51.552;13.424;2024-01-30T08:35:43;5.80;99.90
39919;DHT22;25589;51.552;13.424;2024-01-30T08:38:09;6.10;99.90
39919;DHT22;25589;51.552;13.424;2024-01-30T08:40:35;6.60;99.90
39919;DHT22;25589;51.552;13.424;2024-01-30T08:43:00;5.90;99.90
39919;DHT22;25589;51.552;13.424;2024-01-30T08:45:26;6.50;99.90
39919;DHT22;25589;51.552;13.424;2024-01-30T08:47:52;6.00;99.90
39919;DHT22;25589;51.552;13.424;2024-01-30T08:50:17;7.00;99.90
39919;DHT22;25589;51.552;13.424;2024-01-30T08:52:45;6.50;99.90
39919;DHT22;25589;51.552;13.424;2024-01-30T08:55:10;6.00;99.90
39919;DHT22;25589;51.552;13.424;2024-01-30T08:57:36;6.30;99.90
39919;DHT22;25589;51.552;13.424;2024-01-30T09:00:02;6.40;99.90
39919;DHT22;25589;51.552;13.424;2024-01-30T09:02:32;6.40;99.90
39919;DHT22;25589;51.552;13.424;2024-01-30T09:04:58;6.10;99.90
39919;DHT22;25589;51.552;13.424;2024-01-30T09:07:24;7.30;99.90
39919;DHT22;25589;51.552;13.424;2024-01-30T09:09:50;6.30;99.90
39919;DHT22;25589;51.552;13.424;2024-01-30T09:12:15;7.20;99.90
39919;DHT22;25589;51.552;13.424;2024-01-30T09:14:41;7.70;99.90
39919;DHT22;25589;51.552;13.424;2024-01-30T09:17:07;7.10;99.90
39919;DHT22;25589;51.552;13.424;2024-01-30T09:19:33;6.80;99.90
39919;DHT22;25589;51.552;13.424;2024-01-30T09:21:59;6.80;99.90
39919;DHT22;25589;51.552;13.424;2024-01-30T09:24:25;6.50;99.90
39919;DHT22;25589;51.552;13.424;2024-01-30T09:26:51;6.90;99.90
39919;DHT22;25589;51.552;13.424;2024-01-30T09:29:17;6.80;99.90
39919;DHT22;25589;51.552;13.424;2024-01-30T09:31:46;6.90;99.90
39919;DHT22;25589;51.552;13.424;2024-01-30T09:34:12;7.00;99.90
39919;DHT22;25589;51.552;13.424;2024-01-30T09:36:38;6.90;99.90
39919;DHT22;25589;51.552;13.424;2024-01-30T09:39:03;7.00;99.90
39919;DHT22;25589;51.552;13.424;2024-01-30T09:41:32;6.80;99.90
39919;DHT22;25589;51.552;13.424;2024-01-30T09:43:59;7.00;99.90
39919;DHT22;25589;51.552;13.424;2024-01-30T09:46:27;6.40;99.90
39919;DHT22;25589;51.552;13.424;2024-01-30T09:48:53;7.00;99.90
39919;DHT22;25589;51.552;13.424;2024-01-30T09:51:21;7.10;99.90
39919;DHT22;25589;51.552;13.424;2024-01-30T09:53:48;7.00;99.90
39919;DHT22;25589;51.552;13.424;2024-01-30T09:56:14;7.00;99.90
39919;DHT22;25589;51.552;13.424;2024-01-30T09:58:40;6.40;99.90
39919;DHT22;25589;51.552;13.424;2024-01-30T10:01:06;7.10;99.90
39919;DHT22;25589;51.552;13.424;2024-01-30T10:05:57;7.40;99.90
39919;DHT22;25589;51.552;13.424;2024-01-30T10:08:23;7.30;99.90
39919;DHT22;25589;51.552;13.424;2024-01-30T10:10:49;7.30;99.90
39919;DHT22;25589;51.552;13.424;2024-01-30T10:13:15;7.40;99.90
39919;DHT22;25589;51.552;13.424;2024-01-30T10:15:41;7.60;99.90
39919;DHT22;25589;51.552;13.424;2024-01-30T10:18:08;7.50;99.90
39919;DHT22;25589;51.552;13.424;2024-01-30T10:20:35;7.80;99.90
39919;DHT22;25589;51.552;13.424;2024-01-30T10:23:01;7.60;99.90
39919;DHT22;25589;51.552;13.424;2024-01-30T10:25:27;7.70;99.90
39919;DHT22;25589;51.552;13.424;2024-01-30T10:27:53;7.80;99.90
39919;DHT22;25589;51.552;13.424;2024-01-30T10:30:22;7.00;99.90
39919;DHT22;25589;51.552;13.424;2024-01-30T10:32:48;7.60;99.90
39919;DHT22;25589;51.552;13.424;2024-01-30T10:37:43;8.20;99.90
39919;DHT22;25589;51.552;13.424;2024-01-30T10:40:12;8.90;99.90
39919;DHT22;25589;51.552;13.424;2024-01-30T10:42:43;8.40;99.90
39919;DHT22;25589;51.552;13.424;2024-01-30T10:45:13;8.40;99.90
39919;DHT22;25589;51.552;13.424;2024-01-30T10:47:40;8.50;99.90
39919;DHT22;25589;51.552;13.424;2024-01-30T10:50:08;9.00;99.90
39919;DHT22;25589;51.552;13.424;2024-01-30T10:52:36;8.80;99.90
39919;DHT22;25589;51.552;13.424;2024-01-30T10:55:04;8.80;99.90
39919;DHT22;25589;51.552;13.424;2024-01-30T10:57:34;9.00;99.90
39919;DHT22;25589;51.552;13.424;2024-01-30T11:00:02;8.80;99.90
39919;DHT22;25589;51.552;13.424;2024-01-30T11:02:31;9.20;99.90
39919;DHT22;25589;51.552;13.424;2024-01-30T11:04:59;8.90;99.90
39919;DHT22;25589;51.552;13.424;2024-01-30T11:07:29;9.40;99.90
39919;DHT22;25589;51.552;13.424;2024-01-30T11:12:24;10.10;99.90
39919;DHT22;25589;51.552;13.424;2024-01-30T11:15:05;10.10;99.90
39919;DHT22;25589;51.552;13.424;2024-01-30T11:22:45;9.90;99.90
39919;DHT22;25589;51.552;13.424;2024-01-30T11:25:15;9.80;99.90
39919;DHT22;25589;51.552;13.424;2024-01-30T11:27:45;10.00;99.90
39919;DHT22;25589;51.552;13.424;2024-01-30T11:30:20;10.10;99.90
39919;DHT22;25589;51.552;13.424;2024-01-30T11:32:46;10.10;99.90
39919;DHT22;25589;51.552;13.424;2024-01-30T11:35:11;10.20;99.90
39919;DHT22;25589;51.552;13.424;2024-01-30T11:37:37;10.10;99.90
39919;DHT22;25589;51.552;13.424;2024-01-30T11:40:07;10.00;99.90
39919;DHT22;25589;51.552;13.424;2024-01-30T11:42:34;10.40;99.90
39919;DHT22;25589;51.552;13.424;2024-01-30T11:45:02;10.10;99.90
39919;DHT22;25589;51.552;13.424;2024-01-30T11:47:28;10.20;99.90
39919;DHT22;25589;51.552;13.424;2024-01-30T11:49:54;10.20;99.90
39919;DHT22;25589;51.552;13.424;2024-01-30T11:52:20;10.30;99.90
39919;DHT22;25589;51.552;13.424;2024-01-30T11:54:45;10.70;99.90
39919;DHT22;25589;51.552;13.424;2024-01-30T11:57:11;10.40;99.90
39919;DHT22;25589;51.552;13.424;2024-01-30T11:59:36;10.10;99.90
39919;DHT22;25589;51.552;13.424;2024-01-30T12:02:02;10.40;99.90
39919;DHT22;25589;51.552;13.424;2024-01-30T12:04:29;10.50;99.90
39919;DHT22;25589;51.552;13.424;2024-01-30T12:06:55;10.60;99.90
39919;DHT22;25589;51.552;13.424;2024-01-30T12:09:21;10.60;99.90
39919;DHT22;25589;51.552;13.424;2024-01-30T12:11:48;11.00;99.90
39919;DHT22;25589;51.552;13.424;2024-01-30T12:14:16;10.70;99.90
39919;DHT22;25589;51.552;13.424;2024-01-30T12:16:42;10.70;99.90
39919;DHT22;25589;51.552;13.424;2024-01-30T12:19:08;10.70;99.90
39919;DHT22;25589;51.552;13.424;2024-01-30T12:21:34;10.40;99.90
39919;DHT22;25589;51.552;13.424;2024-01-30T12:24:00;11.10;99.90
39919;DHT22;25589;51.552;13.424;2024-01-30T12:26:26;11.00;99.90
39919;DHT22;25589;51.552;13.424;2024-01-30T12:28:56;11.00;99.90
39919;DHT22;25589;51.552;13.424;2024-01-30T12:31:27;11.10;99.90
39919;DHT22;25589;51.552;13.424;2024-01-30T12:33:53;11.20;99.90
39919;DHT22;25589;51.552;13.424;2024-01-30T12:36:20;11.20;99.90
39919;DHT22;25589;51.552;13.424;2024-01-30T12:38:46;11.30;99.90
39919;DHT22;25589;51.552;13.424;2024-01-30T12:41:11;11.40;99.90
39919;DHT22;25589;51.552;13.424;2024-01-30T12:43:37;11.50;99.90
39919;DHT22;25589;51.552;13.424;2024-01-30T12:46:03;11.40;99.90
39919;DHT22;25589;51.552;13.424;2024-01-30T12:48:29;11.30;99.90
39919;DHT22;25589;51.552;13.424;2024-01-30T12:50:56;11.20;99.90
39919;DHT22;25589;51.552;13.424;2024-01-30T12:53:21;11.60;99.90
39919;DHT22;25589;51.552;13.424;2024-01-30T12:55:47;11.30;99.90
39919;DHT22;25589;51.552;13.424;2024-01-30T12:58:15;11.30;99.90
39919;DHT22;25589;51.552;13.424;2024-01-30T13:00:42;11.20;99.90
39919;DHT22;25589;51.552;13.424;2024-01-30T13:05:35;12.00;99.90
39919;DHT22;25589;51.552;13.424;2024-01-30T13:08:01;11.30;99.90
39919;DHT22;25589;51.552;13.424;2024-01-30T13:10:26;11.20;99.90
39919;DHT22;25589;51.552;13.424;2024-01-30T13:12:52;10.90;99.90
39919;DHT22;25589;51.552;13.424;2024-01-30T13:15:18;11.20;99.90
39919;DHT22;25589;51.552;13.424;2024-01-30T13:17:44;11.20;99.90
39919;DHT22;25589;51.552;13.424;2024-01-30T13:20:13;11.20;99.90
39919;DHT22;25589;51.552;13.424;2024-01-30T13:22:43;11.30;99.90
39919;DHT22;25589;51.552;13.424;2024-01-30T13:25:08;11.20;99.90
39919;DHT22;25589;51.552;13.424;2024-01-30T13:27:34;11.20;99.90
39919;DHT22;25589;51.552;13.424;2024-01-30T13:30:00;11.20;99.90
39919;DHT22;25589;51.552;13.424;2024-01-30T13:32:25;11.60;99.90
39919;DHT22;25589;51.552;13.424;2024-01-30T13:34:51;11.10;99.90
39919;DHT22;25589;51.552;13.424;2024-01-30T13:37:17;11.20;99.90
39919;DHT22;25589;51.552;13.424;2024-01-30T13:39:42;11.60;99.90
39919;DHT22;25589;51.552;13.424;2024-01-30T13:44:35;11.00;99.90
39919;DHT22;25589;51.552;13.424;2024-01-30T13:47:01;11.00;99.90
39919;DHT22;25589;51.552;13.424;2024-01-30T13:49:26;11.00;99.90
39919;DHT22;25589;51.552;13.424;2024-01-30T13:51:52;11.00;99.90
39919;DHT22;25589;51.552;13.424;2024-01-30T13:54:18;11.00;99.90
39919;DHT22;25589;51.552;13.424;2024-01-30T13:56:44;11.10;99.90
39919;DHT22;25589;51.552;13.424;2024-01-30T13:59:09;11.20;99.90
39919;DHT22;25589;51.552;13.424;2024-01-30T14:01:35;11.20;99.90
39919;DHT22;25589;51.552;13.424;2024-01-30T14:04:01;11.20;99.90
39919;DHT22;25589;51.552;13.424;2024-01-30T14:06:27;11.10;99.90
39919;DHT22;25589;51.552;13.424;2024-01-30T14:08:53;11.10;99.90
39919;DHT22;25589;51.552;13.424;2024-01-30T14:11:19;11.10;99.90
39919;DHT22;25589;51.552;13.424;2024-01-30T14:13:45;11.00;99.90
39919;DHT22;25589;51.552;13.424;2024-01-30T14:16:11;11.00;99.90
39919;DHT22;25589;51.552;13.424;2024-01-30T14:18:36;10.90;99.90
39919;DHT22;25589;51.552;13.424;2024-01-30T14:21:02;11.10;99.90
39919;DHT22;25589;51.552;13.424;2024-01-30T14:23:28;11.40;99.90
39919;DHT22;25589;51.552;13.424;2024-01-30T14:25:53;10.70;99.90
39919;DHT22;25589;51.552;13.424;2024-01-30T14:28:19;10.70;99.90
39919;DHT22;25589;51.552;13.424;2024-01-30T14:30:44;11.00;99.90
39919;DHT22;25589;51.552;13.424;2024-01-30T14:33:10;10.70;99.90
39919;DHT22;25589;51.552;13.424;2024-01-30T14:35:35;10.60;99.90
39919;DHT22;25589;51.552;13.424;2024-01-30T14:38:01;10.60;99.90
39919;DHT22;25589;51.552;13.424;2024-01-30T14:40:27;10.50;99.90
39919;DHT22;25589;51.552;13.424;2024-01-30T14:42:53;10.70;99.90
39919;DHT22;25589;51.552;13.424;2024-01-30T14:45:20;10.50;99.90
39919;DHT22;25589;51.552;13.424;2024-01-30T14:47:47;10.60;99.90
39919;DHT22;25589;51.552;13.424;2024-01-30T14:50:13;10.50;99.90
39919;DHT22;25589;51.552;13.424;2024-01-30T14:52:38;10.40;99.90
39919;DHT22;25589;51.552;13.424;2024-01-30T14:55:05;10.00;99.90
39919;DHT22;25589;51.552;13.424;2024-01-30T14:57:31;10.30;99.90
39919;DHT22;25589;51.552;13.424;2024-01-30T14:59:57;10.30;99.90
39919;DHT22;25589;51.552;13.424;2024-01-30T15:02:22;10.20;99.90
39919;DHT22;25589;51.552;13.424;2024-01-30T15:04:48;10.20;99.90
39919;DHT22;25589;51.552;13.424;2024-01-30T15:07:14;10.30;99.90
39919;DHT22;25589;51.552;13.424;2024-01-30T15:09:39;10.30;99.90
39919;DHT22;25589;51.552;13.424;2024-01-30T15:12:05;10.20;99.90
39919;DHT22;25589;51.552;13.424;2024-01-30T15:14:30;10.10;99.90
39919;DHT22;25589;51.552;13.424;2024-01-30T15:16:56;10.10;99.90
39919;DHT22;25589;51.552;13.424;2024-01-30T15:19:21;10.00;99.90
39919;DHT22;25589;51.552;13.424;2024-01-30T15:21:47;10.30;99.90
39919;DHT22;25589;51.552;13.424;2024-01-30T15:24:13;9.90;99.90
39919;DHT22;25589;51.552;13.424;2024-01-30T15:26:41;9.90;99.90
39919;DHT22;25589;51.552;13.424;2024-01-30T15:29:06;9.80;99.90
39919;DHT22;25589;51.552;13.424;2024-01-30T15:31:32;9.80;99.90
39919;DHT22;25589;51.552;13.424;2024-01-30T15:33:58;9.80;99.90
39919;DHT22;25589;51.552;13.424;2024-01-30T15:36:23;9.80;99.90
39919;DHT22;25589;51.552;13.424;2024-01-30T15:38:49;10.00;99.90
39919;DHT22;25589;51.552;13.424;2024-01-30T15:41:15;10.00;99.90
39919;DHT22;25589;51.552;13.424;2024-01-30T15:43:40;10.20;99.90
39919;DHT22;25589;51.552;13.424;2024-01-30T15:46:06;9.70;99.90
39919;DHT22;25589;51.552;13.424;2024-01-30T15:48:32;9.60;99.90
39919;DHT22;25589;51.552;13.424;2024-01-30T15:50:57;9.60;99.90
39919;DHT22;25589;51.552;13.424;2024-01-30T15:53:23;9.60;99.90
39919;DHT22;25589;51.552;13.424;2024-01-30T15:55:51;9.40;99.90
39919;DHT22;25589;51.552;13.424;2024-01-30T15:58:17;9.60;99.90